Time;durP1;ratioP1;P1;durP2;ratioP2;P2;SDS_P1;SDS_P2;PMS_P1;PMS_P2;Temp;Humidity;BMP_temperature;BMP_pressure;BME280_temperature;BME280_humidity;BME280_pressure;Samples;Min_cycle;Max_cycle;Signal;HPM_P1;HPM_P2
2022/05/27 00:00:20;;;;;;;1.65;1.20;;;14.90;86.10;;;;;;4163966;28;20058;-74
2022/05/27 00:02:22;;;;;;;2.92;1.77;;;14.90;86.90;;;;;;4162318;28;20826;-74
2022/05/27 00:04:24;;;;;;;2.08;1.50;;;14.90;86.50;;;;;;4158726;28;20076;-74
2022/05/27 00:06:27;;;;;;;1.50;1.40;;;14.80;86.50;;;;;;4160517;28;20113;-74
2022/05/27 00:08:28;;;;;;;1.92;1.40;;;14.80;86.70;;;;;;4160868;28;20065;-74
2022/05/27 00:10:30;;;;;;;5.82;1.95;;;14.70;86.80;;;;;;4157952;28;20069;-74
2022/05/27 00:12:32;;;;;;;1.58;1.08;;;14.70;86.90;;;;;;4158727;28;20070;-74
2022/05/27 00:14:34;;;;;;;2.85;0.70;;;14.70;87.10;;;;;;4159861;28;20086;-74
2022/05/27 00:16:35;;;;;;;0.65;0.65;;;14.70;87.20;;;;;;4163349;28;20042;-74
2022/05/27 00:18:38;;;;;;;1.80;0.98;;;14.60;87.30;;;;;;4160271;28;20061;-74
2022/05/27 00:20:41;;;;;;;3.38;0.88;;;14.60;88.30;;;;;;4160256;28;20093;-75
2022/05/27 00:22:42;;;;;;;0.65;0.63;;;14.60;87.60;;;;;;4164826;28;20773;-74
2022/05/27 00:24:44;;;;;;;4.10;0.70;;;14.60;87.60;;;;;;4159756;28;20057;-74
2022/05/27 00:26:46;;;;;;;0.75;0.50;;;14.50;88.40;;;;;;4157547;28;20092;-74
2022/05/27 00:28:47;;;;;;;2.25;0.90;;;14.50;87.80;;;;;;4175199;28;20096;-74
2022/05/27 00:30:49;;;;;;;2.08;0.90;;;14.50;88.10;;;;;;4169479;28;20957;-74
2022/05/27 00:32:51;;;;;;;2.15;0.80;;;14.50;88.20;;;;;;4153932;28;20122;-74
2022/05/27 00:34:53;;;;;;;2.22;0.70;;;14.50;88.10;;;;;;4154519;28;20065;-74
2022/05/27 00:36:55;;;;;;;1.25;0.43;;;14.50;88.20;;;;;;4151575;28;20063;-74
2022/05/27 00:39:00;;;;;;;1.30;0.88;;;14.50;88.40;;;;;;4152310;28;20054;-74
2022/05/27 00:41:02;;;;;;;0.95;0.70;;;14.50;88.60;;;;;;4151001;28;20054;-73
2022/05/27 00:43:05;;;;;;;0.88;0.65;;;14.40;88.70;;;;;;4153000;28;20058;-74
2022/05/27 00:45:17;;;;;;;1.38;0.55;;;14.40;88.70;;;;;;4163090;28;20069;-74
2022/05/27 00:47:22;;;;;;;1.27;0.63;;;14.40;88.70;;;;;;4154649;28;20068;-74
2022/05/27 00:49:26;;;;;;;0.60;0.60;;;14.40;88.60;;;;;;4163914;28;20156;-74
2022/05/27 00:51:32;;;;;;;1.58;0.80;;;14.40;88.80;;;;;;4153397;28;20855;-74
2022/05/27 00:53:42;;;;;;;3.97;0.50;;;14.40;88.90;;;;;;4158974;28;20093;-74
2022/05/27 00:55:47;;;;;;;1.08;0.77;;;14.40;88.90;;;;;;4164191;28;20062;-74
2022/05/27 00:57:55;;;;;;;1.45;0.85;;;14.30;89.00;;;;;;4166248;28;20101;-74
2022/05/27 01:00:01;;;;;;;1.48;0.60;;;14.40;89.00;;;;;;4166649;28;20128;-73
2022/05/27 01:02:03;;;;;;;0.80;0.57;;;14.30;89.10;;;;;;4166609;28;20116;-74
2022/05/27 01:04:08;;;;;;;1.90;0.77;;;14.30;89.20;;;;;;4160800;28;20100;-74
2022/05/27 01:06:09;;;;;;;2.97;0.60;;;14.30;89.20;;;;;;4160024;28;20782;-73
2022/05/27 01:08:15;;;;;;;0.80;0.60;;;14.30;89.30;;;;;;4157517;28;20065;-73
2022/05/27 01:10:18;;;;;;;1.35;0.60;;;14.30;89.50;;;;;;4157181;28;20042;-73
2022/05/27 01:12:39;;;;;;;1.38;0.77;;;14.20;89.60;;;;;;4156481;28;20062;-73
2022/05/27 01:14:59;;;;;;;0.75;0.75;;;14.20;89.90;;;;;;4174941;28;20101;-73
2022/05/27 01:17:10;;;;;;;2.05;1.25;;;14.20;90.10;;;;;;4176394;28;20061;-73
2022/05/27 01:21:53;;;;;;;2.83;0.90;;;14.10;90.20;;;;;;4159806;28;19924;-75
2022/05/27 01:24:14;;;;;;;0.70;0.70;;;14.10;90.30;;;;;;4160930;28;20165;-73
2022/05/27 01:26:51;;;;;;;0.80;0.70;;;14.10;90.30;;;;;;4158804;28;20054;-73
2022/05/27 01:29:23;;;;;;;1.30;1.00;;;14.10;90.40;;;;;;4149770;28;20046;-73
2022/05/27 01:31:43;;;;;;;0.85;0.80;;;14.10;90.50;;;;;;4158095;28;20113;-73
2022/05/27 01:34:03;;;;;;;0.70;0.60;;;14.00;90.60;;;;;;4160367;28;20892;-74
2022/05/27 01:36:17;;;;;;;1.40;0.87;;;14.00;90.70;;;;;;4173974;28;20983;-74
2022/05/27 01:38:55;;;;;;;0.63;0.63;;;14.00;90.70;;;;;;4171216;28;20117;-74
2022/05/27 01:41:16;;;;;;;0.93;0.60;;;14.00;90.80;;;;;;4150348;28;20058;-74
2022/05/27 01:43:24;;;;;;;1.67;0.63;;;14.00;90.90;;;;;;4156120;28;20049;-74
2022/05/27 01:45:47;;;;;;;2.13;1.00;;;14.00;91.00;;;;;;4152418;28;20855;-74
2022/05/27 01:48:11;;;;;;;2.85;1.17;;;14.00;91.00;;;;;;4155162;28;20058;-74
2022/05/27 01:50:31;;;;;;;2.65;0.85;;;14.00;91.00;;;;;;4152670;28;20100;-74
2022/05/27 01:52:43;;;;;;;1.70;0.67;;;13.90;91.10;;;;;;4154248;28;20065;-74
2022/05/27 01:55:02;;;;;;;1.50;0.80;;;13.90;91.20;;;;;;4154543;28;20936;-74
2022/05/27 01:57:16;;;;;;;1.17;0.70;;;13.90;91.30;;;;;;4153432;28;20126;-74
2022/05/27 01:59:43;;;;;;;0.85;0.60;;;13.90;91.30;;;;;;4152316;28;20157;-74
2022/05/27 02:01:52;;;;;;;2.15;1.13;;;13.90;91.20;;;;;;4155428;28;20877;-74
2022/05/27 02:04:10;;;;;;;1.40;0.90;;;13.90;91.30;;;;;;4156198;28;20069;-74
2022/05/27 02:06:36;;;;;;;1.92;1.13;;;13.90;91.30;;;;;;4161686;28;20089;-74
2022/05/27 02:08:53;;;;;;;1.70;1.02;;;13.90;91.30;;;;;;4152061;28;20088;-74
2022/05/27 02:10:59;;;;;;;0.68;0.68;;;13.90;91.30;;;;;;4160434;28;20073;-74
2022/05/27 02:13:10;;;;;;;3.47;1.00;;;13.90;91.40;;;;;;4160590;28;20062;-73
2022/05/27 02:15:17;;;;;;;0.63;0.63;;;13.80;91.50;;;;;;4169061;28;20060;-73
2022/05/27 02:17:28;;;;;;;1.83;0.88;;;13.80;91.60;;;;;;4173263;28;20054;-74
2022/05/27 02:19:38;;;;;;;1.55;0.73;;;13.80;91.60;;;;;;4162783;28;20054;-74
2022/05/27 02:21:47;;;;;;;4.03;1.58;;;13.80;91.60;;;;;;4157648;28;20061;-74
2022/05/27 02:23:55;;;;;;;1.27;1.00;;;13.80;91.70;;;;;;4161461;28;20079;-74
2022/05/27 02:25:59;;;;;;;1.67;1.00;;;13.70;91.70;;;;;;4158910;28;20747;-73
2022/05/27 02:28:13;;;;;;;0.75;0.70;;;13.70;91.80;;;;;;4157933;28;20058;-73
2022/05/27 02:30:21;;;;;;;1.88;1.00;;;13.70;91.90;;;;;;4155775;28;20120;-74
2022/05/27 02:32:37;;;;;;;3.22;1.00;;;13.60;92.00;;;;;;4158360;28;20097;-74
2022/05/27 02:35:08;;;;;;;0.70;0.70;;;13.50;92.10;;;;;;4158592;28;20053;-74
2022/05/27 02:37:13;;;;;;;1.83;1.20;;;13.50;92.30;;;;;;4156152;28;20832;-74
2022/05/27 02:39:14;;;;;;;1.05;0.80;;;13.50;92.40;;;;;;4155618;28;20061;-73
2022/05/27 02:41:31;;;;;;;1.42;0.90;;;13.50;92.50;;;;;;4158444;28;20882;-74
2022/05/27 02:43:54;;;;;;;1.48;0.93;;;13.40;92.70;;;;;;4158608;28;20474;-73
2022/05/27 02:46:06;;;;;;;1.10;1.00;;;13.40;92.80;;;;;;4157782;28;20073;-73
2022/05/27 02:48:28;;;;;;;1.77;0.85;;;13.40;92.90;;;;;;4154005;28;20054;-74
2022/05/27 02:50:45;;;;;;;1.15;1.00;;;13.40;93.00;;;;;;4175506;28;20057;-73
2022/05/27 02:52:56;;;;;;;1.63;0.93;;;13.40;93.10;;;;;;4172115;28;20909;-74
2022/05/27 02:55:09;;;;;;;1.00;0.90;;;13.40;93.10;;;;;;4156330;28;20072;-74
2022/05/27 02:57:27;;;;;;;1.05;0.98;;;13.40;93.10;;;;;;4155530;28;20838;-74
2022/05/27 02:59:31;;;;;;;1.40;1.00;;;13.40;93.10;;;;;;4151665;28;20062;-74
2022/05/27 03:01:33;;;;;;;3.13;1.00;;;13.40;93.20;;;;;;4158029;28;20062;-74
2022/05/27 03:03:35;;;;;;;3.20;0.93;;;13.40;93.20;;;;;;4171923;28;20872;-73
2022/05/27 03:06:16;;;;;;;1.05;1.00;;;13.40;93.20;;;;;;4158115;28;20064;-74
2022/05/27 03:08:30;;;;;;;1.83;1.52;;;13.40;93.30;;;;;;4152571;28;20173;-74
2022/05/27 03:11:00;;;;;;;1.65;1.02;;;13.40;93.40;;;;;;4166533;28;20062;-73
2022/05/27 03:13:16;;;;;;;2.05;1.13;;;13.40;93.60;;;;;;4180136;28;20068;-74
2022/05/27 03:15:33;;;;;;;1.30;1.20;;;13.30;93.60;;;;;;4165907;28;20054;-74
2022/05/27 03:18:07;;;;;;;1.70;1.17;;;13.30;93.90;;;;;;4155441;28;20174;-74
2022/05/27 03:20:21;;;;;;;2.78;0.90;;;13.40;93.60;;;;;;4148570;28;20189;-73
2022/05/27 03:22:42;;;;;;;2.38;1.23;;;13.30;93.60;;;;;;4180137;28;20061;-73
2022/05/27 03:25:03;;;;;;;2.55;1.55;;;13.30;93.70;;;;;;4157234;28;20058;-74
2022/05/27 03:27:17;;;;;;;2.13;1.13;;;13.30;93.80;;;;;;4156094;28;20058;-74
2022/05/27 03:29:31;;;;;;;4.85;1.40;;;13.30;93.90;;;;;;4173688;28;20046;-73
2022/05/27 03:31:39;;;;;;;2.08;1.00;;;13.30;94.20;;;;;;4158378;28;20129;-74
2022/05/27 03:33:54;;;;;;;1.48;1.10;;;13.30;94.10;;;;;;4156944;28;20193;-74
2022/05/27 03:36:19;;;;;;;2.08;1.20;;;13.30;94.00;;;;;;4171773;28;20058;-74
2022/05/27 03:38:49;;;;;;;1.50;1.15;;;13.30;94.20;;;;;;4176163;28;20803;-74
2022/05/27 03:41:21;;;;;;;3.00;1.27;;;13.30;94.60;;;;;;4154501;28;20097;-74
2022/05/27 03:43:23;;;;;;;3.63;1.20;;;13.40;94.20;;;;;;4156711;28;20101;-73
2022/05/27 03:45:25;;;;;;;1.50;1.40;;;13.40;94.30;;;;;;4156799;28;20058;-73
2022/05/27 03:47:27;;;;;;;1.95;1.00;;;13.40;94.20;;;;;;4155038;28;20097;-73
2022/05/27 03:49:29;;;;;;;2.65;1.17;;;13.40;94.10;;;;;;4158479;28;20058;-74
2022/05/27 03:51:37;;;;;;;1.80;1.20;;;13.40;94.20;;;;;;4158244;28;20921;-73
2022/05/27 03:56:03;;;;;;;1.55;1.38;;;13.50;94.10;;;;;;4160418;28;20808;-74
2022/05/27 03:58:04;;;;;;;1.95;1.13;;;13.50;94.00;;;;;;4158460;28;20085;-74
2022/05/27 04:00:09;;;;;;;1.90;0.98;;;13.50;94.00;;;;;;4158977;28;20181;-73
2022/05/27 04:02:10;;;;;;;2.17;1.25;;;13.60;93.90;;;;;;4157807;28;20062;-74
2022/05/27 04:04:15;;;;;;;2.15;1.30;;;13.60;93.80;;;;;;4159901;28;20880;-74
2022/05/27 04:06:18;;;;;;;0.98;0.77;;;13.60;93.70;;;;;;4155339;28;20968;-73
2022/05/27 04:08:19;;;;;;;1.40;1.08;;;13.70;93.60;;;;;;4156305;28;20061;-74
2022/05/27 04:10:21;;;;;;;1.75;1.05;;;13.70;93.60;;;;;;4154198;28;20049;-74
2022/05/27 04:12:23;;;;;;;1.52;1.00;;;13.80;93.40;;;;;;4156039;28;20058;-73
2022/05/27 04:14:25;;;;;;;2.50;1.23;;;13.80;93.30;;;;;;4158414;28;20069;-74
2022/05/27 04:16:26;;;;;;;2.60;1.10;;;13.80;93.30;;;;;;4157465;28;20058;-74
2022/05/27 04:18:28;;;;;;;1.92;0.95;;;13.80;93.20;;;;;;4173611;28;20069;-73
2022/05/27 04:20:30;;;;;;;2.35;0.90;;;13.90;93.30;;;;;;4155049;28;20057;-73
2022/05/27 04:22:32;;;;;;;2.13;1.10;;;13.90;93.20;;;;;;4159146;28;20054;-74
2022/05/27 04:24:33;;;;;;;4.47;1.48;;;13.90;93.20;;;;;;4153079;28;20063;-74
2022/05/27 04:26:36;;;;;;;1.77;1.40;;;13.90;93.20;;;;;;4153638;28;20090;-74
2022/05/27 04:28:38;;;;;;;1.95;1.40;;;13.90;93.20;;;;;;4150668;28;20062;-74
2022/05/27 04:30:39;;;;;;;2.70;1.10;;;13.90;93.20;;;;;;4149947;28;20101;-74
2022/05/27 04:32:41;;;;;;;3.90;1.35;;;13.90;93.60;;;;;;4161610;28;20058;-74
2022/05/27 04:34:43;;;;;;;1.70;1.00;;;13.80;93.40;;;;;;4187574;22;20714;-72
2022/05/27 04:36:45;;;;;;;1.25;1.08;;;13.80;93.50;;;;;;4197881;28;20156;-72
2022/05/27 04:38:47;;;;;;;0.80;0.73;;;13.70;93.60;;;;;;4197947;28;20179;-72
2022/05/27 04:40:49;;;;;;;1.05;0.95;;;13.70;93.90;;;;;;4196096;28;20057;-72
2022/05/27 04:42:50;;;;;;;2.08;1.05;;;13.70;94.10;;;;;;4197623;28;20067;-72
2022/05/27 04:44:52;;;;;;;4.00;1.98;;;13.70;94.10;;;;;;4198027;28;20093;-71
2022/05/27 04:46:55;;;;;;;2.70;1.48;;;13.60;94.20;;;;;;4197431;28;20134;-72
2022/05/27 04:48:56;;;;;;;1.50;1.02;;;13.60;94.20;;;;;;4195487;28;20067;-71
2022/05/27 04:50:58;;;;;;;4.00;1.10;;;13.60;94.40;;;;;;4197375;28;20103;-71
2022/05/27 04:53:00;;;;;;;2.50;1.33;;;13.60;94.60;;;;;;4195355;28;20061;-72
2022/05/27 04:55:07;;;;;;;5.80;1.83;;;13.60;94.80;;;;;;4196621;28;20056;-72
2022/05/27 04:57:23;;;;;;;1.40;1.30;;;13.70;94.70;;;;;;4197382;28;20071;-71
2022/05/27 04:59:25;;;;;;;2.10;1.15;;;13.80;94.50;;;;;;4197177;28;20055;-72
2022/05/27 05:01:27;;;;;;;3.20;1.17;;;13.90;94.30;;;;;;4197476;28;20871;-72
2022/05/27 05:03:29;;;;;;;2.15;0.82;;;13.90;94.20;;;;;;4197000;28;20646;-72
2022/05/27 05:05:32;;;;;;;1.25;1.08;;;14.00;94.00;;;;;;4197163;28;20057;-71
2022/05/27 05:07:36;;;;;;;3.65;0.90;;;14.10;93.80;;;;;;4197072;28;20090;-71
2022/05/27 05:09:40;;;;;;;1.00;0.82;;;14.20;93.80;;;;;;4197576;28;20176;-71
2022/05/27 05:11:41;;;;;;;3.13;1.17;;;14.20;93.60;;;;;;4196304;28;20057;-71
2022/05/27 05:13:43;;;;;;;2.63;1.13;;;14.30;93.40;;;;;;4197583;28;20156;-72
2022/05/27 05:15:45;;;;;;;1.90;1.35;;;14.40;93.20;;;;;;4197091;28;20057;-72
2022/05/27 05:17:47;;;;;;;1.30;1.10;;;14.50;93.20;;;;;;4197038;28;20061;-72
2022/05/27 05:19:48;;;;;;;1.38;0.80;;;14.50;92.80;;;;;;4195701;28;20053;-72
2022/05/27 05:21:50;;;;;;;2.95;0.88;;;14.60;92.50;;;;;;4196925;28;20065;-71
2022/05/27 05:23:52;;;;;;;1.40;1.10;;;14.70;92.50;;;;;;4196991;28;20053;-72
2022/05/27 05:25:53;;;;;;;1.25;1.15;;;14.80;92.40;;;;;;4197055;28;20072;-71
2022/05/27 05:27:55;;;;;;;1.52;1.02;;;14.80;92.60;;;;;;4196403;28;20059;-71
2022/05/27 05:29:57;;;;;;;2.00;1.00;;;14.90;92.00;;;;;;4197366;28;20337;-72
2022/05/27 05:31:59;;;;;;;1.27;0.80;;;14.80;92.10;;;;;;4195050;28;20079;-72
2022/05/27 05:34:02;;;;;;;2.42;1.15;;;14.90;92.20;;;;;;4197157;28;20053;-72
2022/05/27 05:36:04;;;;;;;3.03;1.27;;;14.90;92.20;;;;;;4196925;28;20057;-72
2022/05/27 05:38:06;;;;;;;2.78;1.42;;;15.00;92.00;;;;;;4194885;28;20154;-72
2022/05/27 05:40:10;;;;;;;1.20;1.10;;;15.00;92.00;;;;;;4197640;28;20057;-72
2022/05/27 05:42:12;;;;;;;1.33;1.02;;;15.00;91.80;;;;;;4196628;28;20060;-72
2022/05/27 05:44:14;;;;;;;2.97;1.13;;;15.10;91.50;;;;;;4197060;28;20100;-72
2022/05/27 05:46:15;;;;;;;2.03;1.42;;;15.20;91.50;;;;;;4195650;28;20063;-72
2022/05/27 05:48:17;;;;;;;2.08;1.67;;;15.10;91.50;;;;;;4196834;28;20073;-72
2022/05/27 05:50:19;;;;;;;1.08;0.90;;;15.10;91.60;;;;;;4199909;28;20100;-72
2022/05/27 05:52:21;;;;;;;3.05;1.90;;;15.10;91.70;;;;;;4194691;28;20123;-72
2022/05/27 05:54:24;;;;;;;1.33;1.15;;;15.10;91.70;;;;;;4196032;28;20056;-72
2022/05/27 05:56:30;;;;;;;1.90;1.30;;;15.00;91.90;;;;;;4196927;28;20599;-72
2022/05/27 05:58:32;;;;;;;1.35;1.25;;;15.00;92.20;;;;;;4196723;28;20156;-72
2022/05/27 06:00:33;;;;;;;1.55;1.38;;;15.00;92.20;;;;;;4196188;28;20064;-72
2022/05/27 06:02:35;;;;;;;1.90;1.40;;;15.00;92.10;;;;;;4195621;28;20770;-72
2022/05/27 06:04:37;;;;;;;2.75;1.65;;;15.00;92.10;;;;;;4195607;28;20131;-72
2022/05/27 06:06:47;;;;;;;2.42;1.50;;;14.90;92.50;;;;;;4194699;28;20146;-72
2022/05/27 06:08:49;;;;;;;4.80;1.95;;;14.90;92.50;;;;;;4195928;28;20057;-72
2022/05/27 06:10:51;;;;;;;1.70;1.60;;;14.90;92.60;;;;;;4195487;28;20053;-72
2022/05/27 06:12:52;;;;;;;1.95;1.40;;;15.10;92.40;;;;;;4196544;28;20056;-72
2022/05/27 06:14:54;;;;;;;1.27;1.05;;;15.10;92.20;;;;;;4196601;28;20194;-72
2022/05/27 06:16:56;;;;;;;2.50;1.52;;;15.30;91.90;;;;;;4196592;28;20239;-71
2022/05/27 06:18:58;;;;;;;1.90;1.50;;;15.40;91.50;;;;;;4195231;28;20071;-72
2022/05/27 06:21:00;;;;;;;1.80;1.45;;;15.50;91.20;;;;;;4193842;28;20092;-72
2022/05/27 06:23:04;;;;;;;2.40;1.38;;;15.60;91.00;;;;;;4196077;28;20063;-72
2022/05/27 06:25:06;;;;;;;2.20;1.40;;;15.60;91.10;;;;;;4194863;28;20057;-73
2022/05/27 06:27:08;;;;;;;1.90;1.30;;;15.60;91.20;;;;;;4196748;28;20057;-72
2022/05/27 06:36:14;;;;;;;4.03;1.30;;;15.50;91.60;;;;;;4194773;28;20147;-72
2022/05/27 06:38:16;;;;;;;3.05;1.30;;;15.60;91.50;;;;;;4195348;28;20087;-72
2022/05/27 06:40:18;;;;;;;1.52;1.42;;;15.60;91.50;;;;;;4193283;28;20052;-72
2022/05/27 06:42:20;;;;;;;2.13;1.42;;;15.60;91.30;;;;;;4193129;28;20057;-72
2022/05/27 06:44:39;;;;;;;2.00;1.35;;;15.70;91.60;;;;;;4195609;28;20159;-72
2022/05/27 06:46:41;;;;;;;2.97;1.40;;;15.80;91.40;;;;;;4196248;28;20057;-72
2022/05/27 06:48:42;;;;;;;2.60;1.52;;;15.80;91.30;;;;;;4196305;28;20057;-73
2022/05/27 06:50:44;;;;;;;1.85;1.60;;;15.90;91.00;;;;;;4195313;28;20056;-73
2022/05/27 06:52:46;;;;;;;1.42;1.27;;;15.90;90.90;;;;;;4195016;28;20057;-73
2022/05/27 06:54:47;;;;;;;1.88;1.73;;;15.90;91.00;;;;;;4194483;28;20049;-73
2022/05/27 06:56:52;;;;;;;1.40;1.25;;;15.80;91.20;;;;;;4194550;28;20075;-73
2022/05/27 06:58:54;;;;;;;2.40;1.70;;;15.80;91.30;;;;;;4195979;28;20159;-72
2022/05/27 07:00:56;;;;;;;2.22;1.30;;;15.60;91.40;;;;;;4193758;28;20080;-72
2022/05/27 07:02:57;;;;;;;1.73;1.63;;;15.60;91.80;;;;;;4192409;28;20053;-72
2022/05/27 07:04:59;;;;;;;2.90;1.63;;;15.50;91.60;;;;;;4196255;28;20056;-72
2022/05/27 07:07:04;;;;;;;2.53;1.40;;;15.40;91.90;;;;;;4195979;28;20049;-72
2022/05/27 07:09:06;;;;;;;1.80;1.38;;;15.50;92.00;;;;;;4195780;28;20734;-72
2022/05/27 07:11:10;;;;;;;1.42;1.33;;;15.50;92.00;;;;;;4193917;28;20115;-72
2022/05/27 07:13:13;;;;;;;2.08;1.30;;;15.50;91.70;;;;;;4196245;28;20057;-72
2022/05/27 07:15:16;;;;;;;4.60;1.92;;;15.50;91.70;;;;;;4195513;28;20080;-72
2022/05/27 07:17:17;;;;;;;2.72;1.50;;;15.50;91.80;;;;;;4195902;28;20064;-72
2022/05/27 07:19:20;;;;;;;2.22;1.55;;;15.40;91.90;;;;;;4193603;28;20180;-71
2022/05/27 07:21:23;;;;;;;1.52;1.42;;;15.40;92.00;;;;;;4193534;28;20788;-72
2022/05/27 07:23:24;;;;;;;1.30;1.20;;;15.40;91.90;;;;;;4194001;28;20087;-72
2022/05/27 07:25:26;;;;;;;2.60;1.40;;;15.50;91.60;;;;;;4195840;28;20063;-72
2022/05/27 07:27:28;;;;;;;7.78;2.65;;;15.60;91.50;;;;;;4194224;28;20249;-72
2022/05/27 07:29:29;;;;;;;9.70;1.50;;;15.60;91.80;;;;;;4196063;28;20057;-72
2022/05/27 07:31:32;;;;;;;2.97;1.30;;;15.50;91.90;;;;;;4193981;28;20108;-72
2022/05/27 07:33:33;;;;;;;3.15;1.58;;;15.50;91.70;;;;;;4195627;28;20822;-72
2022/05/27 07:35:35;;;;;;;4.05;1.65;;;15.40;91.90;;;;;;4193871;28;20061;-72
2022/05/27 07:37:38;;;;;;;1.98;1.00;;;15.40;92.00;;;;;;4195328;28;20060;-72
2022/05/27 07:39:39;;;;;;;1.65;1.20;;;15.40;91.90;;;;;;4193957;28;20898;-72
2022/05/27 07:41:41;;;;;;;3.88;1.65;;;15.40;91.90;;;;;;4196539;28;20061;-73
2022/05/27 07:43:44;;;;;;;1.88;1.50;;;15.50;91.90;;;;;;4209782;28;20053;-73
2022/05/27 07:45:46;;;;;;;2.00;1.40;;;15.50;91.80;;;;;;4201902;28;20061;-72
2022/05/27 07:47:48;;;;;;;1.50;1.35;;;15.60;91.50;;;;;;4198290;28;20095;-72
2022/05/27 07:49:49;;;;;;;1.92;1.65;;;15.70;91.10;;;;;;4195163;28;20084;-72
2022/05/27 07:51:51;;;;;;;2.85;1.70;;;15.70;91.10;;;;;;4196731;28;20068;-72
2022/05/27 07:53:53;;;;;;;1.27;1.17;;;15.70;91.20;;;;;;4197217;28;20783;-72
2022/05/27 07:55:55;;;;;;;4.60;1.55;;;15.80;91.20;;;;;;4196418;28;20053;-72
2022/05/27 07:57:57;;;;;;;1.40;1.30;;;15.80;90.90;;;;;;4198021;28;20674;-73
2022/05/27 08:00:07;;;;;;;2.10;1.52;;;15.90;90.80;;;;;;4196898;28;20064;-72
2022/05/27 08:02:09;;;;;;;1.85;1.20;;;15.80;90.90;;;;;;4196198;28;20064;-72
2022/05/27 08:04:11;;;;;;;2.20;1.25;;;15.80;91.10;;;;;;4196399;28;20811;-72
2022/05/27 08:06:14;;;;;;;3.90;1.33;;;15.90;91.20;;;;;;4195987;28;20092;-73
2022/05/27 08:08:19;;;;;;;2.75;1.10;;;15.90;91.20;;;;;;4194626;28;20093;-72
2022/05/27 08:10:24;;;;;;;1.63;1.27;;;16.00;90.90;;;;;;4196066;28;20060;-72
2022/05/27 08:12:26;;;;;;;2.35;1.50;;;16.00;90.70;;;;;;4195920;28;20053;-74
2022/05/27 08:14:28;;;;;;;2.10;1.20;;;16.10;90.70;;;;;;4198290;28;20056;-73
2022/05/27 08:16:32;;;;;;;3.53;1.27;;;16.10;90.50;;;;;;4195760;28;20180;-72
2022/05/27 08:18:36;;;;;;;3.90;1.27;;;16.20;90.40;;;;;;4190367;28;20067;-73
2022/05/27 08:20:43;;;;;;;1.17;1.08;;;16.20;90.70;;;;;;4196763;28;20128;-74
2022/05/27 08:22:46;;;;;;;1.65;1.55;;;16.30;90.70;;;;;;4197725;28;20061;-74
2022/05/27 08:24:48;;;;;;;5.80;1.27;;;16.30;90.40;;;;;;4197686;28;20076;-78
2022/05/27 08:26:50;;;;;;;2.90;1.65;;;16.50;90.10;;;;;;4198353;28;20061;-73
2022/05/27 08:28:51;;;;;;;3.05;1.48;;;16.50;89.90;;;;;;4208838;28;20066;-73
2022/05/27 08:30:58;;;;;;;3.20;1.50;;;16.50;90.00;;;;;;4198099;28;20049;-74
2022/05/27 08:33:00;;;;;;;2.03;1.02;;;16.50;90.10;;;;;;4197964;28;20065;-73
2022/05/27 08:39:47;;;;;;;2.55;1.88;;;16.30;90.40;;;;;;4197587;28;19933;-74
2022/05/27 08:41:55;;;;;;;2.13;1.20;;;16.10;90.20;;;;;;4190390;28;20068;-75
2022/05/27 08:44:36;;;;;;;5.72;1.27;;;16.00;90.00;;;;;;4189967;28;20063;-76
2022/05/27 08:46:46;;;;;;;4.32;1.58;;;16.00;90.70;;;;;;4196480;28;20071;-76
2022/05/27 08:48:55;;;;;;;2.30;1.25;;;16.00;90.50;;;;;;4196083;28;20056;-76
2022/05/27 08:51:29;;;;;;;1.85;1.30;;;16.00;90.40;;;;;;4197279;28;20053;-75
2022/05/27 08:53:40;;;;;;;3.40;1.48;;;16.10;90.60;;;;;;4197702;28;20168;-76
2022/05/27 09:00:46;;;;;;;3.15;1.38;;;16.80;88.10;;;;;;4177062;28;20057;-76
2022/05/27 09:02:57;;;;;;;3.20;1.38;;;16.90;86.70;;;;;;4188789;28;20057;-76
2022/05/27 09:05:17;;;;;;;3.33;2.30;;;16.80;86.40;;;;;;4196816;28;20396;-76
2022/05/27 09:07:36;;;;;;;3.92;1.52;;;16.80;87.00;;;;;;4197314;28;20065;-75
2022/05/27 09:09:38;;;;;;;1.73;1.10;;;16.90;86.80;;;;;;4197169;28;20067;-75
2022/05/27 09:12:04;;;;;;;1.65;1.15;;;16.90;87.20;;;;;;4196517;28;20092;-76
2022/05/27 09:14:13;;;;;;;4.03;1.27;;;17.10;86.50;;;;;;4195929;28;20056;-76
2022/05/27 09:16:32;;;;;;;2.30;1.75;;;17.10;85.70;;;;;;4197289;28;20057;-75
2022/05/27 09:19:06;;;;;;;3.85;1.92;;;17.00;85.70;;;;;;4199633;28;20045;-74
2022/05/27 09:21:22;;;;;;;2.20;1.02;;;17.10;86.10;;;;;;4204953;28;20049;-76
2022/05/27 09:23:39;;;;;;;4.28;1.55;;;17.00;86.40;;;;;;4196706;28;20180;-74
2022/05/27 09:26:29;;;;;;;2.90;1.10;;;17.00;86.10;;;;;;4196386;28;20048;-77
2022/05/27 09:28:46;;;;;;;1.77;1.30;;;17.10;87.10;;;;;;4185467;28;20068;-75
2022/05/27 09:30:50;;;;;;;2.65;1.20;;;17.30;86.70;;;;;;4195217;28;20254;-76
2022/05/27 09:33:02;;;;;;;2.45;1.30;;;17.20;83.70;;;;;;4197497;28;20839;-78
2022/05/27 09:35:12;;;;;;;5.18;1.98;;;17.20;83.30;;;;;;4196171;28;20056;-76
2022/05/27 09:37:39;;;;;;;1.63;1.00;;;17.10;82.20;;;;;;4196326;28;20057;-77
2022/05/27 09:39:41;;;;;;;4.88;1.60;;;17.10;83.40;;;;;;4194556;28;20115;-77
2022/05/27 09:41:51;;;;;;;1.80;1.20;;;17.30;83.50;;;;;;4192311;28;20119;-76
2022/05/27 09:44:09;;;;;;;1.05;0.95;;;17.30;80.10;;;;;;4195719;28;20168;-76
2022/05/27 09:46:18;;;;;;;1.15;1.05;;;17.40;80.10;;;;;;4196965;28;20811;-77
2022/05/27 09:48:20;;;;;;;4.35;1.20;;;17.80;80.70;;;;;;4196267;28;20147;-75
2022/05/27 09:50:31;;;;;;;1.40;0.85;;;18.10;78.20;;;;;;4197286;28;20061;-78
2022/05/27 09:52:40;;;;;;;1.35;0.80;;;18.50;76.50;;;;;;4195176;28;20056;-77
2022/05/27 09:54:51;;;;;;;1.65;0.90;;;18.60;75.80;;;;;;4193940;28;20071;-75
2022/05/27 09:56:58;;;;;;;1.15;0.80;;;18.80;75.30;;;;;;4196045;28;20152;-77
2022/05/27 09:59:26;;;;;;;3.28;1.17;;;18.50;74.80;;;;;;4195468;28;20060;-76
2022/05/27 10:01:28;;;;;;;0.95;0.93;;;18.30;74.90;;;;;;4194659;28;20049;-76
2022/05/27 10:03:39;;;;;;;5.38;1.55;;;18.10;76.30;;;;;;4195071;28;20101;-76
2022/05/27 10:05:41;;;;;;;;;;;17.90;75.50;;;;;;4197159;28;20057;-76
2022/05/27 10:07:50;;;;;;;1.27;1.02;;;17.90;76.50;;;;;;4197083;28;20667;-76
2022/05/27 10:09:52;;;;;;;1.27;1.13;;;17.90;76.10;;;;;;4196023;28;20875;-76
2022/05/27 10:11:57;;;;;;;0.68;0.68;;;18.00;76.00;;;;;;4195530;28;20091;-77
2022/05/27 10:14:10;;;;;;;0.88;0.88;;;18.10;77.00;;;;;;4194627;28;20095;-76
2022/05/27 10:16:21;;;;;;;0.93;0.50;;;18.10;72.90;;;;;;4195271;28;20064;-77
2022/05/27 10:18:25;;;;;;;2.17;0.95;;;18.10;73.60;;;;;;4196184;28;20118;-77
2022/05/27 10:20:31;;;;;;;2.17;1.05;;;18.20;72.50;;;;;;4197139;28;20085;-76
2022/05/27 10:22:33;;;;;;;2.28;0.70;;;18.30;71.90;;;;;;4195357;28;20064;-76
2022/05/27 10:24:41;;;;;;;1.45;0.65;;;18.40;69.20;;;;;;4196264;28;20599;-76
2022/05/27 10:26:44;;;;;;;1.13;0.95;;;18.40;69.90;;;;;;4195460;28;20157;-76
2022/05/27 10:29:10;;;;;;;1.83;0.63;;;18.50;70.30;;;;;;4192679;28;20106;-77
2022/05/27 10:31:16;;;;;;;1.73;1.30;;;18.70;69.50;;;;;;4196714;28;20053;-76
2022/05/27 10:33:23;;;;;;;1.58;0.93;;;18.90;68.80;;;;;;4196551;28;20114;-77
2022/05/27 10:35:30;;;;;;;0.93;0.68;;;19.10;68.80;;;;;;4193940;28;20067;-77
2022/05/27 10:37:52;;;;;;;1.70;0.90;;;19.20;67.70;;;;;;4212015;22;21297;-78
2022/05/27 10:40:16;;;;;;;1.05;0.63;;;19.30;68.10;;;;;;4214073;28;20772;-78
2022/05/27 10:42:27;;;;;;;2.40;0.90;;;19.60;68.10;;;;;;4204670;28;20048;-76
2022/05/27 10:44:47;;;;;;;0.55;0.55;;;19.80;65.90;;;;;;4211378;28;20142;-79
2022/05/27 10:46:53;;;;;;;1.90;0.57;;;19.80;64.20;;;;;;4203329;28;20049;-78
2022/05/27 10:49:29;;;;;;;2.25;0.60;;;19.80;63.10;;;;;;4201656;28;20126;-77
2022/05/27 10:51:35;;;;;;;0.85;0.70;;;20.00;63.50;;;;;;4207728;28;20176;-78
2022/05/27 10:53:39;;;;;;;1.33;0.70;;;20.20;65.70;;;;;;4202814;28;22161;-74
2022/05/27 10:55:56;;;;;;;1.40;1.15;;;20.30;63.70;;;;;;4206493;28;20063;-77
2022/05/27 11:04:02;;;;;;;1.40;0.60;;;20.30;64.00;;;;;;4209038;28;20095;-80
2022/05/27 11:06:21;;;;;;;1.98;0.63;;;20.20;62.60;;;;;;4210331;28;20872;-80
2022/05/27 11:08:30;;;;;;;0.50;0.50;;;20.20;62.20;;;;;;4207525;28;20860;-79
2022/05/27 11:10:41;;;;;;;6.88;0.77;;;20.00;63.60;;;;;;4205007;28;20061;-80
2022/05/27 11:15:55;;;;;;;0.80;0.70;;;20.10;62.80;;;;;;4209589;28;20149;-79
2022/05/27 11:18:05;;;;;;;0.55;0.55;;;20.20;63.30;;;;;;4214236;28;20660;-82
2022/05/27 11:20:30;;;;;;;3.28;0.55;;;20.30;62.50;;;;;;4207306;28;20057;-84
2022/05/27 11:22:56;;;;;;;1.83;0.65;;;20.30;62.00;;;;;;4212914;28;20044;-81
2022/05/27 11:25:26;;;;;;;3.25;0.75;;;20.30;62.10;;;;;;4207501;28;21066;-82
2022/05/27 11:27:37;;;;;;;1.80;0.60;;;20.30;62.00;;;;;;4183909;28;20052;-82
2022/05/27 11:30:06;;;;;;;1.35;0.60;;;20.20;62.70;;;;;;4213481;28;20175;-80
2022/05/27 11:32:15;;;;;;;1.60;0.52;;;20.20;63.10;;;;;;4213169;28;20053;-82
2022/05/27 11:34:17;;;;;;;2.53;0.70;;;20.00;63.10;;;;;;4212939;28;20060;-82
2022/05/27 11:36:33;;;;;;;1.42;0.52;;;20.00;62.90;;;;;;4212640;28;20171;-81
2022/05/27 11:38:38;;;;;;;1.38;0.50;;;19.90;63.70;;;;;;4213837;28;20926;-83